CheckWX is a tool to help pilots better visualize weather data.  It is not intended as a substitute for an official pre-flight weather briefing.

10:08:24 UTC

EGOW TAF
RAF Woodvale Airport
Southport, United Kingdom
TAF EGOW 260730Z 2609/2618 07008KT 9999 BKN020 BECMG 2609/2611 BKN025 TEMPO 2611/2614 SCT018

Jun-26@
09:00 UTC

Jun-26 @ 09:00 UTC

Jun-26@
18:00 UTC

Jun-26 @ 18:00 UTC

TAF EGOW 260730Z 2609/2618 07008KT 9999 BKN020
Wind
  • 070° at 8 KTS
Cloud Levels
  • Broken at 2,000' AGL

Jun-26@
09:00 UTC

Jun-26 @ 09:00 UTC

Jun-26@
18:00 UTC

Jun-26 @ 18:00 UTC

BECMG 2609/2611 BKN025

Becoming

Becoming Conditions expected by Wed, Jun 26, 2019 @ 11:00 UTC

Wind
  • 070° at 8 KTS
Cloud Levels
  • Broken at 2,500' AGL

Jun-26@
11:00 UTC

Jun-26 @ 11:00 UTC

Jun-26@
14:00 UTC

Jun-26 @ 14:00 UTC

TEMPO 2611/2614 SCT018

Temporary

Temporary Changes expected for less than half the time period

Cloud Levels
  • Scattered at 1,800' AGL